createdAt,value
2022-08-03T00:04:34.179Z,21.05
2022-08-03T00:07:07.905Z,21.03
2022-08-03T00:09:39.978Z,21.09
2022-08-03T00:12:16.422Z,21.11
2022-08-03T00:14:46.873Z,21.10
2022-08-03T00:17:19.260Z,21.01
2022-08-03T00:19:52.993Z,20.99
2022-08-03T00:22:21.153Z,21.01
2022-08-03T00:25:02.944Z,21.01
2022-08-03T00:27:39.211Z,21.02
2022-08-03T00:30:09.223Z,21.08
2022-08-03T00:32:45.156Z,21.11
2022-08-03T00:35:27.414Z,21.11
2022-08-03T00:38:05.268Z,21.18
2022-08-03T00:40:39.086Z,21.26
2022-08-03T00:43:09.304Z,21.33
2022-08-03T00:45:41.780Z,21.40
2022-08-03T00:48:29.612Z,21.36
2022-08-03T00:51:03.832Z,21.29
2022-08-03T00:53:42.440Z,21.26
2022-08-03T00:56:14.513Z,21.24
2022-08-03T00:58:45.600Z,21.15
2022-08-03T01:01:18.674Z,21.20
2022-08-03T01:03:49.379Z,21.16
2022-08-03T01:06:31.838Z,21.01
2022-08-03T01:09:13.670Z,21.04
2022-08-03T01:12:03.787Z,21.07
2022-08-03T01:14:44.635Z,21.17
2022-08-03T01:17:24.988Z,21.15
2022-08-03T01:20:02.760Z,21.17
2022-08-03T01:23:36.085Z,21.25
2022-08-03T01:26:28.321Z,21.22
2022-08-03T01:29:09.185Z,21.08
2022-08-03T01:32:58.563Z,20.96
2022-08-03T01:34:47.216Z,20.87
2022-08-03T01:37:35.666Z,20.59
2022-08-03T01:40:17.650Z,20.42
2022-08-03T01:42:52.284Z,20.41
2022-08-03T01:45:23.321Z,20.47
2022-08-03T01:47:58.163Z,20.51
2022-08-03T01:50:37.292Z,20.47
2022-08-03T01:53:14.476Z,20.56
2022-08-03T01:55:57.493Z,20.64
2022-08-03T01:58:38.511Z,20.73
2022-08-03T02:01:11.305Z,20.74
2022-08-03T02:03:59.954Z,20.75
2022-08-03T02:07:02.231Z,20.74
2022-08-03T02:09:28.576Z,20.72
2022-08-03T02:12:00.568Z,20.72
2022-08-03T02:14:32.131Z,20.70
2022-08-03T02:17:02.235Z,20.64
2022-08-03T02:19:37.579Z,20.71
2022-08-03T02:22:18.462Z,20.73
2022-08-03T02:24:51.092Z,20.75
2022-08-03T02:27:23.602Z,20.69
2022-08-03T02:30:11.164Z,20.40
2022-08-03T02:32:44.049Z,20.24
2022-08-03T02:35:29.599Z,20.11
2022-08-03T02:38:04.217Z,20.14
2022-08-03T02:40:37.933Z,20.08
2022-08-03T02:43:20.360Z,20.00
2022-08-03T02:45:56.000Z,20.02
2022-08-03T02:48:37.056Z,20.02
2022-08-03T02:51:06.554Z,20.09
2022-08-03T02:53:46.028Z,20.09
2022-08-03T02:56:21.021Z,20.13
2022-08-03T02:58:57.450Z,20.15
2022-08-03T03:01:28.890Z,20.22
2022-08-03T03:04:01.801Z,20.27
2022-08-03T03:06:39.421Z,20.29
2022-08-03T03:09:09.847Z,20.31
2022-08-03T03:11:46.588Z,20.33
2022-08-03T03:14:33.700Z,20.36
2022-08-03T03:17:10.919Z,20.32
2022-08-03T03:19:44.702Z,20.11
2022-08-03T03:22:17.810Z,19.99
2022-08-03T03:24:47.609Z,20.01
2022-08-03T03:27:18.356Z,20.06
2022-08-03T03:29:46.941Z,20.10
2022-08-03T03:32:18.900Z,20.08
2022-08-03T03:34:51.062Z,20.06
2022-08-03T03:37:23.746Z,20.08
2022-08-03T03:40:05.972Z,20.14
2022-08-03T03:42:41.080Z,20.20
2022-08-03T03:45:19.494Z,20.21
2022-08-03T03:48:05.852Z,20.19
2022-08-03T03:50:40.314Z,20.25
2022-08-03T03:53:13.610Z,20.25
2022-08-03T03:55:57.899Z,20.28
2022-08-03T03:58:32.737Z,20.33
2022-08-03T04:01:03.778Z,20.36
2022-08-03T04:03:34.152Z,20.40
2022-08-03T04:06:07.233Z,20.36
2022-08-03T04:08:43.222Z,20.26
2022-08-03T04:11:46.396Z,20.28
2022-08-03T04:14:30.160Z,20.27
2022-08-03T04:17:14.332Z,19.71
2022-08-03T04:20:11.329Z,19.66
2022-08-03T04:23:25.276Z,19.97
2022-08-03T04:26:04.961Z,20.13
2022-08-03T04:28:46.753Z,20.58
2022-08-03T04:31:20.611Z,20.96
2022-08-03T04:34:02.993Z,21.41
2022-08-03T04:36:47.425Z,21.90
2022-08-03T04:39:28.297Z,22.42
2022-08-03T04:42:08.638Z,22.74
2022-08-03T04:45:01.033Z,22.89
2022-08-03T04:47:36.288Z,23.10
2022-08-03T05:00:48.666Z,24.83
2022-08-03T05:03:25.607Z,24.95
2022-08-03T05:06:19.078Z,25.17
2022-08-03T05:08:57.502Z,25.89
2022-08-03T05:11:37.565Z,26.45
2022-08-03T05:14:15.027Z,27.13
2022-08-03T05:16:55.519Z,27.68
2022-08-03T05:19:38.006Z,28.22
2022-08-03T05:22:07.713Z,28.79
2022-08-03T05:24:45.534Z,28.86
2022-08-03T05:27:17.556Z,29.04
2022-08-03T05:33:13.241Z,29.40
2022-08-03T05:36:01.934Z,29.86
2022-08-03T05:38:43.663Z,29.93
2022-08-03T05:41:23.937Z,29.14
2022-08-03T05:44:11.091Z,29.37
2022-08-03T05:54:56.407Z,31.30
2022-08-03T05:57:29.537Z,30.36
2022-08-03T06:00:06.756Z,30.75
2022-08-03T06:03:01.274Z,31.25
2022-08-03T06:05:43.283Z,30.76
2022-08-03T06:08:53.202Z,30.38
2022-08-03T06:11:24.229Z,30.71
2022-08-03T06:14:09.418Z,31.05
2022-08-03T06:17:37.614Z,30.67
2022-08-03T06:23:54.830Z,32.64
2022-08-03T06:26:28.646Z,33.42
2022-08-03T06:28:58.086Z,33.87
2022-08-03T06:31:32.217Z,34.33
2022-08-03T06:34:34.991Z,35.11
2022-08-03T06:36:50.984Z,34.73
2022-08-03T06:39:33.480Z,33.77
2022-08-03T06:42:02.125Z,33.79
2022-08-03T06:44:33.864Z,33.33
2022-08-03T06:47:01.210Z,33.10
2022-08-03T06:49:28.214Z,34.24
2022-08-03T06:52:04.030Z,34.96
2022-08-03T06:54:35.739Z,35.65
2022-08-03T06:57:06.055Z,35.86
2022-08-03T07:00:10.592Z,36.32
2022-08-03T07:03:05.012Z,37.47
2022-08-03T07:05:45.033Z,37.51
2022-08-03T07:08:12.392Z,36.77
2022-08-03T07:10:39.588Z,36.72
2022-08-03T07:13:08.801Z,37.71
2022-08-03T07:15:54.537Z,37.88
2022-08-03T07:18:29.097Z,37.29
2022-08-03T07:20:57.058Z,36.54
2022-08-03T07:23:24.212Z,35.75
2022-08-03T07:25:52.041Z,35.02
2022-08-03T07:28:20.442Z,34.82
2022-08-03T07:30:47.853Z,35.74
2022-08-03T07:33:29.385Z,36.73
2022-08-03T07:35:57.985Z,35.56
2022-08-03T07:38:25.180Z,35.81
2022-08-03T07:40:52.010Z,36.00
2022-08-03T07:43:20.739Z,35.38
2022-08-03T07:45:47.632Z,34.93
2022-08-03T07:48:14.791Z,34.78
2022-08-03T07:50:41.700Z,34.05
2022-08-03T07:53:09.041Z,34.78
2022-08-03T07:55:39.092Z,34.56
2022-08-03T07:58:11.294Z,34.26
2022-08-03T08:00:42.300Z,33.88
2022-08-03T08:03:09.244Z,33.31
2022-08-03T08:05:40.995Z,32.89
2022-08-03T08:08:08.254Z,32.47
2022-08-03T08:10:35.991Z,32.54
2022-08-03T08:13:04.714Z,32.75
2022-08-03T08:15:35.721Z,33.05
2022-08-03T08:18:11.346Z,33.53
2022-08-03T08:20:38.259Z,33.82
2022-08-03T08:23:19.963Z,34.18
2022-08-03T08:25:56.770Z,34.25
2022-08-03T08:28:30.891Z,34.02
2022-08-03T08:30:59.959Z,33.56
2022-08-03T08:33:48.069Z,33.65
2022-08-03T08:36:16.823Z,33.74
2022-08-03T08:38:43.901Z,33.36
2022-08-03T08:41:25.762Z,33.04
2022-08-03T08:44:04.647Z,32.32
2022-08-03T08:46:33.520Z,31.71
2022-08-03T08:49:04.773Z,32.23
2022-08-03T08:56:23.293Z,32.20
2022-08-03T08:59:17.173Z,32.46
2022-08-03T09:01:57.533Z,33.08
2022-08-03T09:04:26.491Z,33.35
2022-08-03T09:07:17.733Z,33.38
2022-08-03T09:10:11.142Z,32.81
2022-08-03T09:12:41.844Z,33.25
2022-08-03T09:15:19.737Z,33.35
2022-08-03T09:17:50.900Z,32.35
2022-08-03T09:20:22.299Z,32.06
2022-08-03T09:22:56.281Z,32.17
2022-08-03T09:25:30.048Z,31.34
2022-08-03T09:28:06.556Z,31.81
2022-08-03T09:30:35.526Z,30.91
2022-08-03T09:33:04.183Z,31.54
2022-08-03T09:35:53.037Z,32.29
2022-08-03T09:38:22.929Z,32.76
2022-08-03T09:40:52.169Z,32.76
2022-08-03T09:43:21.938Z,32.94
2022-08-03T09:45:49.936Z,32.33
2022-08-03T09:48:26.429Z,32.28
2022-08-03T09:51:14.474Z,32.47
2022-08-03T09:53:59.791Z,32.57
2022-08-03T09:56:40.373Z,32.88
2022-08-03T09:59:07.674Z,32.44
2022-08-03T10:01:36.180Z,32.57
2022-08-03T10:04:05.204Z,32.50
2022-08-03T10:06:33.712Z,32.92
2022-08-03T10:09:10.031Z,33.66
2022-08-03T10:11:42.072Z,34.32
2022-08-03T10:14:12.063Z,33.80
2022-08-03T10:16:40.467Z,34.73
2022-08-03T10:19:08.968Z,35.46
2022-08-03T10:21:40.350Z,34.97
2022-08-03T10:24:10.099Z,34.77
2022-08-03T10:26:40.022Z,34.51
2022-08-03T10:29:24.348Z,34.79
2022-08-03T10:31:58.756Z,34.90
2022-08-03T10:34:33.871Z,35.19
2022-08-03T10:37:11.582Z,35.75
2022-08-03T10:39:43.870Z,35.98
2022-08-03T10:42:15.268Z,34.74
2022-08-03T10:44:43.236Z,33.74
2022-08-03T10:47:11.546Z,34.94
2022-08-03T10:49:39.199Z,36.12
2022-08-03T10:52:13.794Z,36.34
2022-08-03T10:54:55.304Z,37.07
2022-08-03T10:57:48.825Z,37.86
2022-08-03T11:00:19.040Z,38.25
2022-08-03T11:03:10.440Z,38.21
2022-08-03T11:05:41.408Z,37.67
2022-08-03T11:08:29.750Z,36.22
2022-08-03T11:11:01.592Z,37.36
2022-08-03T11:13:31.323Z,38.34
2022-08-03T11:16:06.536Z,39.41
2022-08-03T11:18:36.154Z,40.04
2022-08-03T11:21:03.787Z,39.02
2022-08-03T11:24:03.105Z,37.35
2022-08-03T11:26:33.255Z,37.76
2022-08-03T11:29:28.964Z,38.43
2022-08-03T11:31:56.743Z,38.75
2022-08-03T11:34:26.066Z,37.35
2022-08-03T11:37:30.005Z,37.95
2022-08-03T11:40:02.712Z,36.42
2022-08-03T11:42:41.951Z,37.31
2022-08-03T11:45:09.878Z,38.21
2022-08-03T11:47:50.451Z,39.09
2022-08-03T11:50:19.435Z,39.60
2022-08-03T11:52:49.771Z,40.37
2022-08-03T11:55:20.667Z,37.31
2022-08-03T11:59:15.374Z,37.49
2022-08-03T12:00:38.125Z,37.27
2022-08-03T12:03:08.687Z,36.46
2022-08-03T12:05:51.415Z,36.29
2022-08-03T12:08:32.708Z,35.65
2022-08-03T12:11:03.822Z,35.18
2022-08-03T12:14:43.823Z,35.29
2022-08-03T12:16:36.020Z,34.14
2022-08-03T12:19:05.900Z,33.89
2022-08-03T12:21:33.092Z,33.97
2022-08-03T12:24:03.074Z,34.50
2022-08-03T12:26:45.425Z,34.86
2022-08-03T12:29:26.529Z,34.98
2022-08-03T12:31:53.686Z,33.87
2022-08-03T12:34:20.979Z,33.39
2022-08-03T12:36:52.895Z,33.08
2022-08-03T12:39:25.337Z,32.74
2022-08-03T12:41:56.252Z,32.72
2022-08-03T12:44:31.096Z,32.73
2022-08-03T12:46:59.196Z,32.89
2022-08-03T12:49:26.542Z,33.12
2022-08-03T12:52:03.931Z,32.97
2022-08-03T12:54:33.834Z,32.90
2022-08-03T12:57:04.720Z,32.83
2022-08-03T12:59:40.456Z,32.64
2022-08-03T13:02:15.136Z,32.79
2022-08-03T13:04:43.166Z,32.86
2022-08-03T13:07:14.566Z,32.61
2022-08-03T13:09:44.284Z,32.67
2022-08-03T13:12:15.853Z,32.87
2022-08-03T13:14:45.165Z,32.93
2022-08-03T13:17:12.346Z,32.94
2022-08-03T13:19:40.659Z,32.77
2022-08-03T13:22:16.680Z,32.69
2022-08-03T13:24:45.847Z,32.84
2022-08-03T13:28:01.908Z,32.89
2022-08-03T13:30:03.691Z,33.07
2022-08-03T13:32:30.957Z,33.12
2022-08-03T13:34:57.838Z,33.12
2022-08-03T13:37:25.708Z,33.21
2022-08-03T13:39:58.150Z,33.41
2022-08-03T13:42:29.672Z,33.45
2022-08-03T13:44:56.926Z,33.57
2022-08-03T13:47:23.743Z,33.55
2022-08-03T13:49:54.094Z,33.73
2022-08-03T13:52:33.480Z,33.83
2022-08-03T13:55:04.070Z,33.80
2022-08-03T13:58:04.433Z,33.61
2022-08-03T14:00:29.580Z,33.72
2022-08-03T14:03:06.701Z,33.91
2022-08-03T14:05:36.885Z,34.08
2022-08-03T14:08:06.981Z,34.14
2022-08-03T14:10:39.975Z,33.95
2022-08-03T14:13:10.174Z,33.85
2022-08-03T14:15:38.670Z,33.58
2022-08-03T14:18:12.907Z,33.60
2022-08-03T14:20:47.792Z,33.71
2022-08-03T14:23:18.697Z,33.46
2022-08-03T14:25:51.472Z,33.35
2022-08-03T14:28:23.497Z,33.57
2022-08-03T14:30:53.009Z,33.62
2022-08-03T14:33:20.424Z,33.66
2022-08-03T14:35:48.770Z,33.89
2022-08-03T14:38:16.061Z,33.98
2022-08-03T14:40:43.343Z,34.09
2022-08-03T14:43:13.634Z,34.10
2022-08-03T14:45:42.180Z,33.70
2022-08-03T14:50:24.424Z,33.70
2022-08-03T14:50:56.937Z,33.88
2022-08-03T14:53:24.394Z,33.85
2022-08-03T14:55:52.115Z,33.68
2022-08-03T14:58:20.958Z,33.82
2022-08-03T15:00:55.541Z,33.81
2022-08-03T15:03:25.550Z,33.60
2022-08-03T15:05:55.531Z,33.73
2022-08-03T15:08:26.624Z,33.83
2022-08-03T15:10:54.549Z,33.94
2022-08-03T15:13:24.432Z,34.08
2022-08-03T15:15:56.072Z,34.19
2022-08-03T15:18:23.460Z,34.22
2022-08-03T15:20:50.933Z,34.28
2022-08-03T15:23:18.887Z,34.28
2022-08-03T15:26:29.636Z,34.20
2022-08-03T15:28:34.449Z,34.06
2022-08-03T15:31:06.781Z,34.15
2022-08-03T15:33:37.193Z,34.01
2022-08-03T15:36:05.351Z,33.76
2022-08-03T15:38:32.240Z,33.52
2022-08-03T15:40:59.225Z,33.65
2022-08-03T15:43:26.318Z,33.83
2022-08-03T15:48:41.789Z,33.98
2022-08-03T15:51:09.418Z,33.75
2022-08-03T15:53:37.371Z,33.81
2022-08-03T15:56:10.602Z,33.91
2022-08-03T15:59:10.193Z,33.77
2022-08-03T16:01:27.685Z,33.72
2022-08-03T16:03:56.295Z,33.57
2022-08-03T16:06:34.625Z,33.49
2022-08-03T16:09:05.717Z,33.57
2022-08-03T16:11:50.747Z,33.67
2022-08-03T16:14:32.629Z,33.56
2022-08-03T16:17:03.890Z,33.59
2022-08-03T16:19:32.924Z,33.71
2022-08-03T16:22:00.412Z,33.77
2022-08-03T16:24:28.301Z,33.76
2022-08-03T16:26:56.024Z,33.72
2022-08-03T16:29:24.307Z,33.63
2022-08-03T16:31:52.560Z,33.60
2022-08-03T16:34:20.859Z,33.66
2022-08-03T16:36:49.240Z,33.73
2022-08-03T16:39:16.340Z,33.63
2022-08-03T16:41:54.243Z,33.69
2022-08-03T16:44:29.966Z,33.74
2022-08-03T16:46:57.393Z,33.70
2022-08-03T16:49:55.160Z,33.71
2022-08-03T16:52:13.436Z,33.77
2022-08-03T16:54:40.626Z,33.65
2022-08-03T16:57:08.632Z,33.65
2022-08-03T16:59:38.456Z,33.72
2022-08-03T17:02:10.393Z,33.75
2022-08-03T17:04:42.539Z,33.77
2022-08-03T17:07:16.040Z,33.80
2022-08-03T17:09:47.804Z,33.69
2022-08-03T17:12:16.894Z,33.69
2022-08-03T17:14:45.169Z,33.67
2022-08-03T17:17:16.590Z,33.67
2022-08-03T17:19:46.987Z,33.46
2022-08-03T17:22:24.638Z,33.48
2022-08-03T17:24:54.320Z,33.46
2022-08-03T17:28:48.657Z,33.49
2022-08-03T17:30:14.443Z,33.54
2022-08-03T17:32:57.186Z,33.53
2022-08-03T17:35:36.583Z,33.46
2022-08-03T17:38:12.069Z,33.34
2022-08-03T17:40:50.061Z,33.35
2022-08-03T17:44:13.978Z,33.34
2022-08-03T17:46:10.748Z,33.28
2022-08-03T17:48:41.437Z,33.22
2022-08-03T17:51:17.400Z,33.23
2022-08-03T17:53:57.875Z,33.14
2022-08-03T17:56:45.954Z,33.18
2022-08-03T17:59:51.643Z,33.14
2022-08-03T18:02:34.804Z,33.09
2022-08-03T18:05:16.211Z,33.05
2022-08-03T18:07:47.884Z,33.03
2022-08-03T18:10:26.858Z,32.98
2022-08-03T18:13:02.964Z,32.91
2022-08-03T18:15:50.530Z,32.87
2022-08-03T18:18:32.282Z,32.82
2022-08-03T18:21:04.546Z,32.76
2022-08-03T18:23:37.044Z,32.62
2022-08-03T18:26:10.794Z,32.52
2022-08-03T18:32:00.471Z,32.44
2022-08-03T18:34:33.297Z,32.39
2022-08-03T18:37:07.822Z,32.40
2022-08-03T18:39:39.057Z,32.41
2022-08-03T18:42:25.618Z,32.25
2022-08-03T18:44:56.387Z,32.15
2022-08-03T18:47:52.130Z,31.95
2022-08-03T18:50:30.820Z,31.82
2022-08-03T18:53:15.576Z,31.77
2022-08-03T18:56:02.119Z,31.71
2022-08-03T18:58:40.464Z,31.67
2022-08-03T19:01:59.068Z,31.60
2022-08-03T19:04:12.870Z,31.46
2022-08-03T19:06:44.222Z,31.18
2022-08-03T19:09:22.753Z,31.02
2022-08-03T19:12:12.310Z,30.86
2022-08-03T19:15:04.787Z,30.72
2022-08-03T19:17:35.983Z,30.58
2022-08-03T19:20:10.639Z,30.47
2022-08-03T19:22:40.521Z,30.37
2022-08-03T19:25:17.948Z,30.18
2022-08-03T19:27:48.869Z,30.10
2022-08-03T19:33:10.572Z,29.94
2022-08-03T19:35:49.802Z,29.86
2022-08-03T19:38:29.684Z,29.79
2022-08-03T19:41:03.154Z,29.63
2022-08-03T19:43:53.533Z,29.51
2022-08-03T19:46:30.505Z,29.41
2022-08-03T19:49:16.833Z,29.33
2022-08-03T19:52:01.744Z,29.26
2022-08-03T19:54:45.629Z,29.11
2022-08-03T19:57:24.837Z,29.04
2022-08-03T19:59:57.520Z,29.01
2022-08-03T20:02:28.035Z,28.96
2022-08-03T20:04:57.642Z,28.93
2022-08-03T20:07:31.460Z,28.82
2022-08-03T20:10:01.537Z,28.69
2022-08-03T20:12:33.177Z,28.61
2022-08-03T20:15:09.024Z,28.56
2022-08-03T20:17:56.989Z,28.52
2022-08-03T20:20:41.055Z,28.44
2022-08-03T20:23:18.206Z,28.19
2022-08-03T20:25:57.342Z,28.24
2022-08-03T20:28:32.284Z,28.20
2022-08-03T20:31:00.133Z,28.16
2022-08-03T20:33:46.132Z,28.14
2022-08-03T20:36:19.022Z,28.10
2022-08-03T20:38:47.001Z,28.00
2022-08-03T20:41:15.193Z,27.86
2022-08-03T20:43:45.419Z,27.77
2022-08-03T20:46:29.427Z,27.70
2022-08-03T20:49:06.900Z,27.61
2022-08-03T20:51:49.909Z,27.58
2022-08-03T20:54:30.840Z,27.58
2022-08-03T20:57:00.273Z,27.49
2022-08-03T20:59:27.969Z,27.43
2022-08-03T21:01:57.431Z,27.41
2022-08-03T21:04:26.070Z,27.39
2022-08-03T21:07:02.379Z,27.36
2022-08-03T21:09:51.909Z,27.09
2022-08-03T21:12:30.054Z,27.15
2022-08-03T21:13:02.301Z,30.00
2022-08-03T21:13:05.402Z,32.48
2022-08-03T21:15:03.685Z,26.89
2022-08-03T21:17:42.067Z,26.86
2022-08-03T21:20:12.545Z,26.58
2022-08-03T21:22:45.461Z,26.41
2022-08-03T21:25:15.860Z,26.43
2022-08-03T21:27:43.156Z,26.52
2022-08-03T21:30:11.709Z,26.53
2022-08-03T21:32:38.698Z,26.56
2022-08-03T21:35:17.427Z,26.53
2022-08-03T21:37:46.178Z,26.33
2022-08-03T21:40:16.437Z,26.27
2022-08-03T21:42:46.572Z,26.23
2022-08-03T21:45:17.343Z,26.22
2022-08-03T21:47:47.293Z,26.00
2022-08-03T21:50:16.689Z,25.91
2022-08-03T21:52:47.058Z,25.91
2022-08-03T21:55:20.325Z,25.92
2022-08-03T21:57:53.307Z,25.69
2022-08-03T22:00:23.463Z,25.80
2022-08-03T22:02:55.425Z,25.88
2022-08-03T22:05:29.083Z,25.97
2022-08-03T22:08:12.576Z,25.98
2022-08-03T22:10:44.942Z,25.91
2022-08-03T22:13:13.961Z,25.95
2022-08-03T22:15:41.724Z,26.01
2022-08-03T22:18:11.721Z,25.95
2022-08-03T22:20:40.351Z,25.61
2022-08-03T22:23:11.204Z,25.56
2022-08-03T22:25:41.100Z,25.62
2022-08-03T22:28:11.495Z,25.61
2022-08-03T22:30:41.495Z,25.70
2022-08-03T22:33:11.974Z,25.74
2022-08-03T22:35:47.377Z,25.77
2022-08-03T22:38:16.630Z,25.76
2022-08-03T22:40:45.177Z,25.66
2022-08-03T22:43:14.353Z,25.63
2022-08-03T22:46:09.066Z,25.57
2022-08-03T22:48:34.975Z,25.44
2022-08-03T22:51:07.298Z,25.31
2022-08-03T22:53:35.769Z,25.22
2022-08-03T22:56:04.068Z,24.93
2022-08-03T22:58:33.119Z,24.91
2022-08-03T23:01:09.984Z,24.91
2022-08-03T23:04:00.083Z,24.96
2022-08-03T23:06:35.063Z,25.07
2022-08-03T23:09:06.752Z,25.11
2022-08-03T23:11:36.971Z,25.02
2022-08-03T23:14:11.823Z,25.08
2022-08-03T23:16:41.458Z,25.11
2022-08-03T23:19:17.016Z,25.12
2022-08-03T23:22:02.399Z,25.02
2022-08-03T23:24:34.630Z,24.81
2022-08-03T23:27:04.491Z,24.66
2022-08-03T23:29:38.498Z,24.44
2022-08-03T23:32:07.220Z,24.30
2022-08-03T23:34:35.385Z,24.06
2022-08-03T23:37:08.447Z,23.98
2022-08-03T23:39:38.708Z,23.93
2022-08-03T23:42:06.603Z,24.03
2022-08-03T23:44:38.651Z,24.11
2022-08-03T23:47:06.188Z,24.20
2022-08-03T23:49:33.355Z,24.31
2022-08-03T23:52:15.447Z,24.35
2022-08-03T23:55:02.892Z,24.38
2022-08-03T23:57:45.931Z,24.33
